sensor_id;sensor_type;location;lat;lon;timestamp;P1;durP1;ratioP1;P2;durP2;ratioP2
63653;SDS011;49809;47.418;19.080;2023-02-28T00:18:08;3.85;;;1.90;;
63653;SDS011;49809;47.418;19.080;2023-02-28T00:21:51;4.20;;;2.12;;
63653;SDS011;49809;47.418;19.080;2023-02-28T00:25:37;7.37;;;1.70;;
63653;SDS011;49809;47.418;19.080;2023-02-28T00:56:08;6.85;;;2.47;;
63653;SDS011;49809;47.418;19.080;2023-02-28T01:00:04;2.80;;;2.17;;
63653;SDS011;49809;47.418;19.080;2023-02-28T01:07:54;4.05;;;2.12;;
63653;SDS011;49809;47.418;19.080;2023-02-28T01:18:53;3.40;;;1.95;;
63653;SDS011;49809;47.418;19.080;2023-02-28T01:34:09;4.82;;;2.72;;
63653;SDS011;49809;47.418;19.080;2023-02-28T01:37:58;3.03;;;2.35;;
63653;SDS011;49809;47.418;19.080;2023-02-28T01:42:03;4.03;;;2.00;;
63653;SDS011;49809;47.418;19.080;2023-02-28T01:45:49;2.72;;;1.55;;
63653;SDS011;49809;47.418;19.080;2023-02-28T01:53:14;2.92;;;2.12;;
63653;SDS011;49809;47.418;19.080;2023-02-28T02:00:39;3.00;;;1.75;;
63653;SDS011;49809;47.418;19.080;2023-02-28T02:04:21;3.70;;;2.20;;
63653;SDS011;49809;47.418;19.080;2023-02-28T02:20:25;3.85;;;2.17;;
63653;SDS011;49809;47.418;19.080;2023-02-28T02:42:00;6.25;;;2.35;;
63653;SDS011;49809;47.418;19.080;2023-02-28T02:53:25;4.97;;;2.95;;
63653;SDS011;49809;47.418;19.080;2023-02-28T02:57:17;3.37;;;2.28;;
63653;SDS011;49809;47.418;19.080;2023-02-28T03:01:01;7.15;;;3.10;;
63653;SDS011;49809;47.418;19.080;2023-02-28T03:05:17;3.75;;;2.65;;
63653;SDS011;49809;47.418;19.080;2023-02-28T03:26:08;4.78;;;3.40;;
63653;SDS011;49809;47.418;19.080;2023-02-28T03:42:26;4.28;;;2.92;;
63653;SDS011;49809;47.418;19.080;2023-02-28T04:24:43;4.78;;;2.50;;
63653;SDS011;49809;47.418;19.080;2023-02-28T04:28:12;3.42;;;1.90;;
63653;SDS011;49809;47.418;19.080;2023-02-28T04:31:51;2.45;;;2.00;;
63653;SDS011;49809;47.418;19.080;2023-02-28T04:39:44;3.87;;;2.45;;
63653;SDS011;49809;47.418;19.080;2023-02-28T04:43:28;4.57;;;2.12;;
63653;SDS011;49809;47.418;19.080;2023-02-28T04:47:05;1.90;;;1.75;;
63653;SDS011;49809;47.418;19.080;2023-02-28T04:50:43;3.17;;;2.03;;
63653;SDS011;49809;47.418;19.080;2023-02-28T04:54:18;5.50;;;2.20;;
63653;SDS011;49809;47.418;19.080;2023-02-28T04:57:59;3.62;;;2.22;;
63653;SDS011;49809;47.418;19.080;2023-02-28T05:09:27;8.32;;;2.10;;
63653;SDS011;49809;47.418;19.080;2023-02-28T05:12:59;4.47;;;2.17;;
63653;SDS011;49809;47.418;19.080;2023-02-28T05:20:31;8.15;;;1.65;;
63653;SDS011;49809;47.418;19.080;2023-02-28T05:24:14;4.10;;;1.77;;
63653;SDS011;49809;47.418;19.080;2023-02-28T05:27:59;3.28;;;2.05;;
63653;SDS011;49809;47.418;19.080;2023-02-28T05:36:25;3.35;;;1.40;;
63653;SDS011;49809;47.418;19.080;2023-02-28T05:47:32;2.08;;;1.37;;
63653;SDS011;49809;47.418;19.080;2023-02-28T05:51:09;14.07;;;3.17;;
63653;SDS011;49809;47.418;19.080;2023-02-28T05:58:53;3.87;;;2.55;;
63653;SDS011;49809;47.418;19.080;2023-02-28T06:06:06;2.00;;;1.80;;
63653;SDS011;49809;47.418;19.080;2023-02-28T06:13:36;3.25;;;2.10;;
63653;SDS011;49809;47.418;19.080;2023-02-28T06:28:58;1.52;;;1.25;;
63653;SDS011;49809;47.418;19.080;2023-02-28T06:33:04;3.15;;;2.25;;
63653;SDS011;49809;47.418;19.080;2023-02-28T06:44:13;4.28;;;2.90;;
63653;SDS011;49809;47.418;19.080;2023-02-28T06:51:42;5.20;;;2.22;;
63653;SDS011;49809;47.418;19.080;2023-02-28T07:03:02;4.35;;;2.30;;
63653;SDS011;49809;47.418;19.080;2023-02-28T07:06:49;5.05;;;2.42;;
63653;SDS011;49809;47.418;19.080;2023-02-28T07:10:26;3.42;;;2.10;;
63653;SDS011;49809;47.418;19.080;2023-02-28T07:14:02;3.17;;;2.35;;
63653;SDS011;49809;47.418;19.080;2023-02-28T07:17:46;2.20;;;1.33;;
63653;SDS011;49809;47.418;19.080;2023-02-28T07:21:33;3.33;;;2.15;;
63653;SDS011;49809;47.418;19.080;2023-02-28T07:25:11;3.72;;;1.77;;
63653;SDS011;49809;47.418;19.080;2023-02-28T07:28:33;4.85;;;2.17;;
63653;SDS011;49809;47.418;19.080;2023-02-28T07:32:20;5.10;;;2.28;;
63653;SDS011;49809;47.418;19.080;2023-02-28T07:35:52;3.97;;;2.20;;
63653;SDS011;49809;47.418;19.080;2023-02-28T07:39:21;4.62;;;2.08;;
63653;SDS011;49809;47.418;19.080;2023-02-28T07:42:49;9.57;;;2.35;;
63653;SDS011;49809;47.418;19.080;2023-02-28T07:46:21;6.37;;;2.15;;
63653;SDS011;49809;47.418;19.080;2023-02-28T07:49:59;3.70;;;2.42;;
63653;SDS011;49809;47.418;19.080;2023-02-28T07:57:10;7.45;;;2.22;;
63653;SDS011;49809;47.418;19.080;2023-02-28T08:00:30;3.75;;;2.08;;
63653;SDS011;49809;47.418;19.080;2023-02-28T08:08:04;7.07;;;1.58;;
63653;SDS011;49809;47.418;19.080;2023-02-28T08:11:48;2.87;;;1.80;;
63653;SDS011;49809;47.418;19.080;2023-02-28T08:15:11;4.18;;;2.58;;
63653;SDS011;49809;47.418;19.080;2023-02-28T08:18:48;4.25;;;2.45;;
63653;SDS011;49809;47.418;19.080;2023-02-28T08:22:40;4.60;;;2.20;;
63653;SDS011;49809;47.418;19.080;2023-02-28T08:26:04;8.00;;;3.00;;
63653;SDS011;49809;47.418;19.080;2023-02-28T08:29:41;6.03;;;2.47;;
63653;SDS011;49809;47.418;19.080;2023-02-28T08:33:45;3.78;;;1.83;;
63653;SDS011;49809;47.418;19.080;2023-02-28T08:37:13;5.22;;;2.35;;
63653;SDS011;49809;47.418;19.080;2023-02-28T08:40:57;4.15;;;2.00;;
63653;SDS011;49809;47.418;19.080;2023-02-28T08:44:06;5.15;;;2.87;;
63653;SDS011;49809;47.418;19.080;2023-02-28T08:47:11;5.20;;;1.62;;
63653;SDS011;49809;47.418;19.080;2023-02-28T08:50:16;4.00;;;2.28;;
63653;SDS011;49809;47.418;19.080;2023-02-28T08:53:31;6.50;;;3.08;;
63653;SDS011;49809;47.418;19.080;2023-02-28T08:56:57;6.77;;;2.40;;
63653;SDS011;49809;47.418;19.080;2023-02-28T09:00:08;4.00;;;2.40;;
63653;SDS011;49809;47.418;19.080;2023-02-28T09:03:12;7.10;;;3.67;;
63653;SDS011;49809;47.418;19.080;2023-02-28T09:06:20;4.93;;;2.40;;
63653;SDS011;49809;47.418;19.080;2023-02-28T09:09:37;4.28;;;2.53;;
63653;SDS011;49809;47.418;19.080;2023-02-28T09:16:47;4.40;;;2.30;;
63653;SDS011;49809;47.418;19.080;2023-02-28T09:20:14;5.25;;;2.20;;
63653;SDS011;49809;47.418;19.080;2023-02-28T09:23:19;4.32;;;2.50;;
63653;SDS011;49809;47.418;19.080;2023-02-28T09:27:02;8.15;;;2.70;;
63653;SDS011;49809;47.418;19.080;2023-02-28T09:30:10;4.87;;;2.80;;
63653;SDS011;49809;47.418;19.080;2023-02-28T09:33:55;5.05;;;2.80;;
63653;SDS011;49809;47.418;19.080;2023-02-28T09:37:19;6.65;;;3.42;;
63653;SDS011;49809;47.418;19.080;2023-02-28T09:40:25;7.20;;;3.30;;
63653;SDS011;49809;47.418;19.080;2023-02-28T09:43:52;6.30;;;3.10;;
63653;SDS011;49809;47.418;19.080;2023-02-28T09:47:19;8.23;;;3.30;;
63653;SDS011;49809;47.418;19.080;2023-02-28T09:50:59;8.52;;;3.17;;
63653;SDS011;49809;47.418;19.080;2023-02-28T09:55:19;5.50;;;3.00;;
63653;SDS011;49809;47.418;19.080;2023-02-28T09:58:53;6.68;;;2.50;;
63653;SDS011;49809;47.418;19.080;2023-02-28T10:14:33;4.72;;;2.60;;
63653;SDS011;49809;47.418;19.080;2023-02-28T10:17:40;4.63;;;2.33;;
63653;SDS011;49809;47.418;19.080;2023-02-28T10:24:53;5.30;;;2.70;;
63653;SDS011;49809;47.418;19.080;2023-02-28T10:28:33;6.28;;;2.97;;
63653;SDS011;49809;47.418;19.080;2023-02-28T10:31:38;3.33;;;2.40;;
63653;SDS011;49809;47.418;19.080;2023-02-28T10:38:20;6.40;;;3.00;;
63653;SDS011;49809;47.418;19.080;2023-02-28T10:41:48;3.20;;;2.22;;
63653;SDS011;49809;47.418;19.080;2023-02-28T10:45:12;4.50;;;2.17;;
63653;SDS011;49809;47.418;19.080;2023-02-28T10:48:38;7.72;;;2.50;;
63653;SDS011;49809;47.418;19.080;2023-02-28T10:52:08;3.58;;;2.22;;
63653;SDS011;49809;47.418;19.080;2023-02-28T10:55:48;6.40;;;2.47;;
63653;SDS011;49809;47.418;19.080;2023-02-28T10:59:03;4.60;;;2.25;;
63653;SDS011;49809;47.418;19.080;2023-02-28T11:06:05;5.57;;;2.60;;
63653;SDS011;49809;47.418;19.080;2023-02-28T11:09:16;5.20;;;2.62;;
63653;SDS011;49809;47.418;19.080;2023-02-28T11:17:18;5.55;;;3.25;;
63653;SDS011;49809;47.418;19.080;2023-02-28T11:20:32;4.00;;;2.40;;
63653;SDS011;49809;47.418;19.080;2023-02-28T11:24:24;3.60;;;2.67;;
63653;SDS011;49809;47.418;19.080;2023-02-28T11:28:01;5.78;;;2.75;;
63653;SDS011;49809;47.418;19.080;2023-02-28T11:31:31;5.30;;;2.78;;
63653;SDS011;49809;47.418;19.080;2023-02-28T11:39:29;4.43;;;3.00;;
63653;SDS011;49809;47.418;19.080;2023-02-28T11:43:07;3.87;;;2.22;;
63653;SDS011;49809;47.418;19.080;2023-02-28T11:57:35;4.10;;;2.33;;
63653;SDS011;49809;47.418;19.080;2023-02-28T12:08:46;9.52;;;4.15;;
63653;SDS011;49809;47.418;19.080;2023-02-28T12:28:46;5.07;;;2.78;;
63653;SDS011;49809;47.418;19.080;2023-02-28T12:36:25;3.47;;;1.87;;
63653;SDS011;49809;47.418;19.080;2023-02-28T12:40:05;3.37;;;1.75;;
63653;SDS011;49809;47.418;19.080;2023-02-28T12:44:00;3.28;;;1.98;;
63653;SDS011;49809;47.418;19.080;2023-02-28T12:51:51;4.78;;;2.12;;
63653;SDS011;49809;47.418;19.080;2023-02-28T12:55:04;3.33;;;2.12;;
63653;SDS011;49809;47.418;19.080;2023-02-28T12:58:55;3.75;;;1.98;;
63653;SDS011;49809;47.418;19.080;2023-02-28T13:10:55;2.60;;;1.80;;
63653;SDS011;49809;47.418;19.080;2023-02-28T13:18:25;4.22;;;2.22;;
63653;SDS011;49809;47.418;19.080;2023-02-28T13:22:48;4.05;;;2.20;;
63653;SDS011;49809;47.418;19.080;2023-02-28T13:34:17;3.03;;;2.00;;
63653;SDS011;49809;47.418;19.080;2023-02-28T13:37:43;5.93;;;2.47;;
63653;SDS011;49809;47.418;19.080;2023-02-28T13:48:17;3.37;;;2.10;;
63653;SDS011;49809;47.418;19.080;2023-02-28T13:59:46;2.75;;;1.62;;
63653;SDS011;49809;47.418;19.080;2023-02-28T14:07:05;7.93;;;3.50;;
63653;SDS011;49809;47.418;19.080;2023-02-28T14:31:47;4.10;;;2.15;;
63653;SDS011;49809;47.418;19.080;2023-02-28T14:43:33;4.55;;;2.12;;
63653;SDS011;49809;47.418;19.080;2023-02-28T14:51:02;7.10;;;2.30;;
63653;SDS011;49809;47.418;19.080;2023-02-28T14:54:05;5.28;;;2.33;;
63653;SDS011;49809;47.418;19.080;2023-02-28T14:57:59;5.65;;;2.60;;
63653;SDS011;49809;47.418;19.080;2023-02-28T15:01:36;9.43;;;2.37;;
63653;SDS011;49809;47.418;19.080;2023-02-28T15:05:34;5.03;;;2.70;;
63653;SDS011;49809;47.418;19.080;2023-02-28T15:09:10;9.20;;;3.67;;
63653;SDS011;49809;47.418;19.080;2023-02-28T15:12:39;5.22;;;2.78;;
63653;SDS011;49809;47.418;19.080;2023-02-28T15:24:35;6.50;;;2.67;;
63653;SDS011;49809;47.418;19.080;2023-02-28T15:27:42;5.37;;;2.87;;
63653;SDS011;49809;47.418;19.080;2023-02-28T15:35:37;9.02;;;3.17;;
63653;SDS011;49809;47.418;19.080;2023-02-28T15:39:20;4.18;;;2.85;;
63653;SDS011;49809;47.418;19.080;2023-02-28T15:54:25;3.50;;;2.05;;
63653;SDS011;49809;47.418;19.080;2023-02-28T16:02:25;7.00;;;2.65;;
63653;SDS011;49809;47.418;19.080;2023-02-28T16:14:18;5.57;;;2.67;;
63653;SDS011;49809;47.418;19.080;2023-02-28T16:21:44;4.87;;;2.30;;
63653;SDS011;49809;47.418;19.080;2023-02-28T16:25:23;5.70;;;2.25;;
63653;SDS011;49809;47.418;19.080;2023-02-28T16:28:58;4.70;;;2.50;;
63653;SDS011;49809;47.418;19.080;2023-02-28T16:32:34;6.37;;;3.08;;
63653;SDS011;49809;47.418;19.080;2023-02-28T16:36:06;4.80;;;2.53;;
63653;SDS011;49809;47.418;19.080;2023-02-28T16:39:44;5.07;;;2.28;;
63653;SDS011;49809;47.418;19.080;2023-02-28T16:43:24;4.03;;;2.47;;
63653;SDS011;49809;47.418;19.080;2023-02-28T16:46:50;6.32;;;3.65;;
63653;SDS011;49809;47.418;19.080;2023-02-28T16:50:14;6.57;;;2.37;;
63653;SDS011;49809;47.418;19.080;2023-02-28T16:53:48;5.60;;;3.03;;
63653;SDS011;49809;47.418;19.080;2023-02-28T17:00:49;4.60;;;2.80;;
63653;SDS011;49809;47.418;19.080;2023-02-28T17:04:26;6.70;;;4.10;;
63653;SDS011;49809;47.418;19.080;2023-02-28T17:08:03;8.35;;;3.97;;
63653;SDS011;49809;47.418;19.080;2023-02-28T17:11:48;9.50;;;3.75;;
63653;SDS011;49809;47.418;19.080;2023-02-28T17:23:08;6.32;;;2.80;;
63653;SDS011;49809;47.418;19.080;2023-02-28T17:46:29;5.28;;;3.40;;
63653;SDS011;49809;47.418;19.080;2023-02-28T17:50:03;5.05;;;3.62;;
63653;SDS011;49809;47.418;19.080;2023-02-28T17:53:41;5.93;;;3.30;;
63653;SDS011;49809;47.418;19.080;2023-02-28T17:56:54;9.02;;;3.45;;
63653;SDS011;49809;47.418;19.080;2023-02-28T18:00:37;6.07;;;3.15;;
63653;SDS011;49809;47.418;19.080;2023-02-28T18:04:15;4.47;;;2.53;;
63653;SDS011;49809;47.418;19.080;2023-02-28T18:07:52;9.43;;;4.65;;
63653;SDS011;49809;47.418;19.080;2023-02-28T18:11:58;7.22;;;3.45;;
63653;SDS011;49809;47.418;19.080;2023-02-28T18:15:21;7.07;;;4.20;;
63653;SDS011;49809;47.418;19.080;2023-02-28T18:18:57;10.55;;;4.65;;
63653;SDS011;49809;47.418;19.080;2023-02-28T18:22:39;6.53;;;3.78;;
63653;SDS011;49809;47.418;19.080;2023-02-28T18:26:07;7.75;;;3.75;;
63653;SDS011;49809;47.418;19.080;2023-02-28T18:29:41;10.35;;;5.15;;
63653;SDS011;49809;47.418;19.080;2023-02-28T18:33:01;7.55;;;4.15;;
63653;SDS011;49809;47.418;19.080;2023-02-28T18:36:38;10.57;;;4.03;;
63653;SDS011;49809;47.418;19.080;2023-02-28T18:39:57;14.60;;;4.20;;
63653;SDS011;49809;47.418;19.080;2023-02-28T18:43:40;9.65;;;4.28;;
63653;SDS011;49809;47.418;19.080;2023-02-28T18:47:44;8.27;;;4.47;;
63653;SDS011;49809;47.418;19.080;2023-02-28T18:51:18;11.57;;;4.70;;
63653;SDS011;49809;47.418;19.080;2023-02-28T18:54:40;7.05;;;3.78;;
63653;SDS011;49809;47.418;19.080;2023-02-28T18:58:30;7.15;;;4.20;;
63653;SDS011;49809;47.418;19.080;2023-02-28T19:02:04;11.40;;;4.40;;
63653;SDS011;49809;47.418;19.080;2023-02-28T19:06:08;7.07;;;3.47;;
63653;SDS011;49809;47.418;19.080;2023-02-28T19:09:27;4.68;;;3.28;;
63653;SDS011;49809;47.418;19.080;2023-02-28T19:12:50;11.32;;;4.50;;
63653;SDS011;49809;47.418;19.080;2023-02-28T19:16:53;10.82;;;5.05;;
63653;SDS011;49809;47.418;19.080;2023-02-28T19:20:35;9.73;;;4.00;;
63653;SDS011;49809;47.418;19.080;2023-02-28T19:24:26;10.43;;;4.12;;
63653;SDS011;49809;47.418;19.080;2023-02-28T19:27:29;11.50;;;4.72;;
63653;SDS011;49809;47.418;19.080;2023-02-28T19:30:48;7.87;;;4.37;;
63653;SDS011;49809;47.418;19.080;2023-02-28T19:34:18;8.00;;;3.80;;
63653;SDS011;49809;47.418;19.080;2023-02-28T19:37:43;8.13;;;4.32;;
63653;SDS011;49809;47.418;19.080;2023-02-28T19:41:17;8.23;;;4.32;;
63653;SDS011;49809;47.418;19.080;2023-02-28T19:44:43;6.93;;;3.80;;
63653;SDS011;49809;47.418;19.080;2023-02-28T19:52:23;16.02;;;5.65;;
63653;SDS011;49809;47.418;19.080;2023-02-28T19:56:10;15.20;;;5.28;;
63653;SDS011;49809;47.418;19.080;2023-02-28T19:59:33;12.65;;;6.12;;
63653;SDS011;49809;47.418;19.080;2023-02-28T20:03:09;10.48;;;5.10;;
63653;SDS011;49809;47.418;19.080;2023-02-28T20:06:50;8.45;;;5.75;;
63653;SDS011;49809;47.418;19.080;2023-02-28T20:14:28;10.20;;;4.28;;
63653;SDS011;49809;47.418;19.080;2023-02-28T20:18:20;12.30;;;5.75;;
63653;SDS011;49809;47.418;19.080;2023-02-28T20:22:09;6.18;;;3.55;;
63653;SDS011;49809;47.418;19.080;2023-02-28T20:25:38;10.82;;;4.60;;
63653;SDS011;49809;47.418;19.080;2023-02-28T20:32:55;14.48;;;6.43;;
63653;SDS011;49809;47.418;19.080;2023-02-28T20:36:26;17.33;;;6.10;;
63653;SDS011;49809;47.418;19.080;2023-02-28T20:39:49;11.60;;;4.60;;
63653;SDS011;49809;47.418;19.080;2023-02-28T20:47:03;7.95;;;4.20;;
63653;SDS011;49809;47.418;19.080;2023-02-28T20:50:34;8.50;;;3.80;;
63653;SDS011;49809;47.418;19.080;2023-02-28T20:54:30;8.50;;;3.78;;
63653;SDS011;49809;47.418;19.080;2023-02-28T20:57:58;5.28;;;3.42;;
63653;SDS011;49809;47.418;19.080;2023-02-28T21:01:32;4.72;;;3.17;;
63653;SDS011;49809;47.418;19.080;2023-02-28T21:04:59;6.22;;;3.37;;
63653;SDS011;49809;47.418;19.080;2023-02-28T21:08:36;6.75;;;4.12;;
63653;SDS011;49809;47.418;19.080;2023-02-28T21:12:14;9.18;;;4.18;;
63653;SDS011;49809;47.418;19.080;2023-02-28T21:15:43;8.55;;;4.30;;
63653;SDS011;49809;47.418;19.080;2023-02-28T21:19:30;7.50;;;4.80;;
63653;SDS011;49809;47.418;19.080;2023-02-28T21:23:13;9.95;;;3.92;;
63653;SDS011;49809;47.418;19.080;2023-02-28T21:30:16;6.37;;;4.18;;
63653;SDS011;49809;47.418;19.080;2023-02-28T21:33:55;10.15;;;4.18;;
63653;SDS011;49809;47.418;19.080;2023-02-28T21:37:36;9.07;;;4.10;;
63653;SDS011;49809;47.418;19.080;2023-02-28T21:41:10;6.20;;;3.78;;
63653;SDS011;49809;47.418;19.080;2023-02-28T21:48:34;11.48;;;3.85;;
63653;SDS011;49809;47.418;19.080;2023-02-28T21:52:16;20.70;;;6.43;;
63653;SDS011;49809;47.418;19.080;2023-02-28T21:55:53;16.70;;;6.93;;
63653;SDS011;49809;47.418;19.080;2023-02-28T21:59:30;12.23;;;6.37;;
63653;SDS011;49809;47.418;19.080;2023-02-28T22:03:13;16.85;;;6.65;;
63653;SDS011;49809;47.418;19.080;2023-02-28T22:07:12;9.93;;;5.47;;
63653;SDS011;49809;47.418;19.080;2023-02-28T22:14:32;11.65;;;4.00;;
63653;SDS011;49809;47.418;19.080;2023-02-28T22:18:24;10.55;;;6.55;;
63653;SDS011;49809;47.418;19.080;2023-02-28T22:21:44;14.27;;;7.00;;
63653;SDS011;49809;47.418;19.080;2023-02-28T22:25:24;9.70;;;4.70;;
63653;SDS011;49809;47.418;19.080;2023-02-28T22:29:04;8.30;;;4.72;;
63653;SDS011;49809;47.418;19.080;2023-02-28T22:32:43;5.55;;;3.37;;
63653;SDS011;49809;47.418;19.080;2023-02-28T22:36:14;9.82;;;5.03;;
63653;SDS011;49809;47.418;19.080;2023-02-28T22:39:44;8.40;;;4.53;;
63653;SDS011;49809;47.418;19.080;2023-02-28T22:43:21;9.15;;;4.32;;
63653;SDS011;49809;47.418;19.080;2023-02-28T22:46:56;7.70;;;3.92;;
63653;SDS011;49809;47.418;19.080;2023-02-28T22:50:39;8.90;;;3.95;;
63653;SDS011;49809;47.418;19.080;2023-02-28T22:54:21;10.07;;;4.47;;
63653;SDS011;49809;47.418;19.080;2023-02-28T22:57:50;8.20;;;4.28;;
63653;SDS011;49809;47.418;19.080;2023-02-28T23:01:27;6.10;;;3.60;;
63653;SDS011;49809;47.418;19.080;2023-02-28T23:05:06;12.45;;;3.95;;
63653;SDS011;49809;47.418;19.080;2023-02-28T23:08:36;13.60;;;5.53;;
63653;SDS011;49809;47.418;19.080;2023-02-28T23:12:14;9.35;;;4.82;;
63653;SDS011;49809;47.418;19.080;2023-02-28T23:15:41;13.68;;;4.47;;
63653;SDS011;49809;47.418;19.080;2023-02-28T23:19:23;8.02;;;4.07;;
63653;SDS011;49809;47.418;19.080;2023-02-28T23:23:01;10.43;;;4.35;;
63653;SDS011;49809;47.418;19.080;2023-02-28T23:26:31;10.00;;;4.53;;
63653;SDS011;49809;47.418;19.080;2023-02-28T23:30:06;8.38;;;3.62;;
63653;SDS011;49809;47.418;19.080;2023-02-28T23:33:52;6.65;;;3.60;;
63653;SDS011;49809;47.418;19.080;2023-02-28T23:37:20;5.45;;;3.70;;
63653;SDS011;49809;47.418;19.080;2023-02-28T23:40:56;5.95;;;3.67;;
63653;SDS011;49809;47.418;19.080;2023-02-28T23:44:30;9.55;;;3.60;;
63653;SDS011;49809;47.418;19.080;2023-02-28T23:48:10;6.05;;;3.55;;
63653;SDS011;49809;47.418;19.080;2023-02-28T23:59:55;5.78;;;3.22;;
